createdAt,value
2019-02-11T00:00:00.268Z,80.81
2019-02-11T00:01:00.233Z,80.91
2019-02-11T00:02:00.227Z,81.02
2019-02-11T00:03:00.212Z,80.81
2019-02-11T00:04:00.217Z,80.75
2019-02-11T00:05:00.283Z,80.85
2019-02-11T00:06:00.178Z,81.05
2019-02-11T00:07:00.172Z,80.85
2019-02-11T00:08:00.159Z,80.89
2019-02-11T00:09:00.149Z,81.09
2019-02-11T00:10:00.284Z,80.99
2019-02-11T00:11:00.141Z,81.61
2019-02-11T00:12:00.120Z,81.92
2019-02-11T00:13:00.103Z,81.96
2019-02-11T00:14:00.097Z,82.02
2019-02-11T00:15:00.103Z,82.47
2019-02-11T00:16:00.075Z,82.68
2019-02-11T00:17:00.072Z,82.68
2019-02-11T00:18:00.056Z,82.26
2019-02-11T00:19:00.041Z,81.54
2019-02-11T00:20:00.046Z,81.23
2019-02-11T00:21:00.019Z,81.07
2019-02-11T00:22:00.009Z,81.27
2019-02-11T00:23:00.003Z,81.07
2019-02-11T00:23:59.991Z,80.55
2019-02-11T00:24:59.989Z,81.17
2019-02-11T00:25:59.970Z,81.07
2019-02-11T00:26:59.956Z,80.86
2019-02-11T00:27:59.950Z,81.10
2019-02-11T00:28:59.937Z,81.21
2019-02-11T00:29:59.957Z,80.07
2019-02-11T00:30:59.909Z,80.07
2019-02-11T00:31:59.907Z,80.07
2019-02-11T00:32:59.940Z,80.28
2019-02-11T00:33:59.884Z,80.69
2019-02-11T00:34:59.877Z,80.58
2019-02-11T00:35:59.857Z,80.07
2019-02-11T00:36:59.846Z,79.66
2019-02-11T00:37:59.836Z,79.55
2019-02-11T00:38:59.823Z,79.66
2019-02-11T00:39:59.826Z,80.07
2019-02-11T00:40:59.806Z,80.21
2019-02-11T00:41:59.792Z,80.73
2019-02-11T00:42:59.783Z,80.28
2019-02-11T00:43:59.779Z,79.97
2019-02-11T00:44:59.772Z,79.76
2019-02-11T00:45:59.806Z,79.97
2019-02-11T00:46:59.745Z,79.97
2019-02-11T00:47:59.728Z,80.07
2019-02-11T00:48:59.715Z,79.80
2019-02-11T00:49:59.716Z,79.55
2019-02-11T00:50:59.695Z,79.04
2019-02-11T00:51:59.686Z,79.59
2019-02-11T00:52:59.676Z,79.04
2019-02-11T00:53:59.662Z,77.63
2019-02-11T00:54:59.661Z,77.73
2019-02-11T00:55:59.638Z,78.05
2019-02-11T00:56:59.628Z,77.84
2019-02-11T00:57:59.625Z,78.25
2019-02-11T00:58:59.607Z,78.25
2019-02-11T00:59:59.611Z,78.08
2019-02-11T01:00:59.584Z,77.84
2019-02-11T01:01:59.579Z,77.94
2019-02-11T01:02:59.564Z,78.28
2019-02-11T01:03:59.559Z,78.49
2019-02-11T01:04:59.552Z,77.84
2019-02-11T01:05:59.531Z,77.77
2019-02-11T01:06:59.520Z,78.14
2019-02-11T01:07:59.512Z,77.77
2019-02-11T01:08:59.502Z,77.04
2019-02-11T01:09:59.507Z,77.25
2019-02-11T01:10:59.477Z,77.56
2019-02-11T01:11:59.463Z,77.98
2019-02-11T01:12:59.454Z,77.87
2019-02-11T01:13:59.446Z,77.98
2019-02-11T01:14:59.446Z,77.87
2019-02-11T01:15:59.423Z,78.91
2019-02-11T01:16:59.415Z,79.11
2019-02-11T01:17:59.399Z,79.22
2019-02-11T01:18:59.390Z,78.80
2019-02-11T01:19:59.395Z,77.98
2019-02-11T01:20:59.370Z,77.67
2019-02-11T01:21:59.362Z,78.08
2019-02-11T01:22:59.348Z,77.81
2019-02-11T01:23:59.345Z,77.60
2019-02-11T01:24:59.372Z,76.46
2019-02-11T01:25:59.339Z,76.29
2019-02-11T01:26:59.308Z,76.50
2019-02-11T01:27:59.301Z,76.70
2019-02-11T01:28:59.287Z,76.39
2019-02-11T01:29:59.274Z,76.74
2019-02-11T01:30:59.277Z,77.05
2019-02-11T01:31:59.255Z,77.56
2019-02-11T01:32:59.241Z,77.56
2019-02-11T01:33:59.235Z,77.05
2019-02-11T01:34:59.223Z,77.26
2019-02-11T01:35:59.222Z,77.60
2019-02-11T01:36:59.200Z,78.12
2019-02-11T01:37:59.191Z,79.05
2019-02-11T01:38:59.181Z,79.36
2019-02-11T01:39:59.168Z,80.43
2019-02-11T01:40:59.173Z,79.81
2019-02-11T01:41:59.148Z,80.33
2019-02-11T01:42:59.138Z,80.74
2019-02-11T01:43:59.128Z,81.51
2019-02-11T01:44:59.118Z,80.99
2019-02-11T01:45:59.118Z,81.30
2019-02-11T01:46:59.095Z,81.51
2019-02-11T01:47:59.140Z,81.09
2019-02-11T01:48:59.075Z,81.30
2019-02-11T01:49:59.062Z,81.65
2019-02-11T01:50:59.063Z,81.75
2019-02-11T01:51:59.048Z,81.96
2019-02-11T01:52:59.032Z,82.51
2019-02-11T01:53:59.024Z,82.37
2019-02-11T01:54:59.009Z,83.00
2019-02-11T01:55:59.011Z,82.68
2019-02-11T01:56:58.988Z,82.93
2019-02-11T01:57:58.979Z,82.93
2019-02-11T01:58:58.970Z,83.03
2019-02-11T01:59:58.966Z,83.24
2019-02-11T02:00:58.955Z,83.45
2019-02-11T02:01:58.938Z,83.76
2019-02-11T02:02:58.924Z,83.65
2019-02-11T02:03:58.920Z,83.86
2019-02-11T02:04:58.908Z,83.34
2019-02-11T02:05:58.905Z,82.62
2019-02-11T02:06:58.882Z,82.72
2019-02-11T02:07:58.869Z,83.07
2019-02-11T02:08:58.862Z,82.97
2019-02-11T02:09:58.851Z,83.69
2019-02-11T02:10:58.854Z,84.11
2019-02-11T02:11:58.832Z,84.00
2019-02-11T02:12:58.824Z,83.90
2019-02-11T02:13:58.805Z,84.31
2019-02-11T02:14:58.797Z,84.42
2019-02-11T02:15:58.808Z,84.83
2019-02-11T02:16:58.777Z,84.73
2019-02-11T02:17:58.768Z,84.52
2019-02-11T02:18:58.753Z,84.73
2019-02-11T02:19:58.742Z,84.83
2019-02-11T02:20:58.746Z,84.11
2019-02-11T02:21:58.722Z,84.52
2019-02-11T02:22:58.710Z,84.83
2019-02-11T02:23:58.700Z,84.63
2019-02-11T02:24:58.692Z,85.35
2019-02-11T02:25:58.696Z,85.04
2019-02-11T02:26:58.671Z,85.08
2019-02-11T02:27:58.662Z,85.39
2019-02-11T02:28:58.647Z,85.04
2019-02-11T02:29:58.637Z,85.14
2019-02-11T02:30:58.639Z,85.25
2019-02-11T02:31:58.622Z,85.39
2019-02-11T02:32:58.605Z,85.29
2019-02-11T02:33:58.602Z,85.19
2019-02-11T02:34:58.583Z,85.19
2019-02-11T02:35:58.586Z,85.39
2019-02-11T02:36:58.565Z,85.19
2019-02-11T02:37:58.554Z,85.19
2019-02-11T02:38:58.541Z,85.08
2019-02-11T02:39:58.532Z,85.12
2019-02-11T02:40:58.532Z,85.33
2019-02-11T02:41:58.513Z,85.33
2019-02-11T02:42:58.503Z,85.43
2019-02-11T02:43:58.494Z,85.53
2019-02-11T02:44:58.482Z,85.19
2019-02-11T02:45:58.488Z,85.43
2019-02-11T02:46:58.461Z,85.53
2019-02-11T02:47:58.456Z,85.33
2019-02-11T02:48:58.437Z,85.53
2019-02-11T02:49:58.431Z,84.70
2019-02-11T02:50:58.429Z,84.29
2019-02-11T02:51:58.403Z,84.33
2019-02-11T02:52:58.393Z,84.95
2019-02-11T02:53:58.382Z,84.84
2019-02-11T02:54:58.373Z,85.26
2019-02-11T02:55:58.376Z,85.16
2019-02-11T02:56:58.355Z,85.16
2019-02-11T02:57:58.345Z,85.57
2019-02-11T02:58:58.329Z,85.78
2019-02-11T02:59:58.319Z,85.36
2019-02-11T03:00:58.324Z,85.78
2019-02-11T03:01:58.296Z,86.30
2019-02-11T03:02:58.289Z,85.68
2019-02-11T03:03:58.276Z,86.30
2019-02-11T03:04:58.268Z,86.09
2019-02-11T03:05:58.271Z,86.19
2019-02-11T03:06:58.246Z,86.09
2019-02-11T03:07:58.239Z,86.19
2019-02-11T03:08:58.230Z,86.09
2019-02-11T03:09:58.219Z,86.24
2019-02-11T03:10:58.227Z,85.72
2019-02-11T03:11:58.196Z,86.44
2019-02-11T03:12:58.183Z,86.65
2019-02-11T03:14:05.385Z,86.96
2019-02-11T03:14:59.195Z,86.86
2019-02-11T03:15:58.171Z,87.38
2019-02-11T03:16:58.143Z,86.96
2019-02-11T03:17:58.132Z,87.34
2019-02-11T03:18:58.118Z,86.51
2019-02-11T03:19:58.114Z,86.61
2019-02-11T03:20:58.113Z,86.09
2019-02-11T03:21:58.086Z,85.88
2019-02-11T03:22:58.080Z,85.68
2019-02-11T03:23:58.069Z,85.88
2019-02-11T03:24:58.053Z,85.99
2019-02-11T03:25:58.057Z,85.78
2019-02-11T03:26:58.037Z,85.68
2019-02-11T03:27:58.026Z,85.88
2019-02-11T03:28:58.017Z,85.88
2019-02-11T03:29:58.004Z,85.68
2019-02-11T03:30:58.008Z,85.88
2019-02-11T03:31:59.966Z,86.19
2019-02-11T03:32:57.976Z,86.09
2019-02-11T03:33:57.966Z,86.19
2019-02-11T03:34:57.950Z,86.82
2019-02-11T03:35:57.945Z,87.13
2019-02-11T03:36:57.942Z,86.96
2019-02-11T03:37:57.942Z,87.17
2019-02-11T03:38:57.906Z,86.82
2019-02-11T03:39:57.906Z,88.10
2019-02-11T03:40:57.888Z,88.00
2019-02-11T03:41:57.889Z,88.94
2019-02-11T03:42:57.868Z,88.42
2019-02-11T03:43:57.858Z,88.52
2019-02-11T03:44:57.848Z,88.31
2019-02-11T03:45:57.838Z,88.42
2019-02-11T03:46:57.838Z,88.48
2019-02-11T03:47:57.814Z,88.38
2019-02-11T03:48:57.807Z,88.38
2019-02-11T03:49:57.794Z,88.28
2019-02-11T03:50:57.786Z,88.28
2019-02-11T03:51:57.782Z,88.48
2019-02-11T03:52:57.771Z,88.69
2019-02-11T03:53:57.754Z,88.59
2019-02-11T03:54:57.742Z,88.07
2019-02-11T03:55:57.734Z,88.54
2019-02-11T03:56:57.734Z,88.96
2019-02-11T03:57:57.720Z,88.75
2019-02-11T03:58:57.700Z,88.75
2019-02-11T03:59:57.694Z,88.65
2019-02-11T04:00:57.687Z,88.44
2019-02-11T04:01:57.686Z,88.51
2019-02-11T04:02:57.655Z,88.40
2019-02-11T04:03:57.650Z,87.99
2019-02-11T04:04:57.665Z,88.51
2019-02-11T04:05:57.629Z,88.71
2019-02-11T04:06:57.637Z,88.71
2019-02-11T04:07:57.606Z,88.82
2019-02-11T04:08:57.612Z,88.82
2019-02-11T04:09:57.590Z,88.82
2019-02-11T04:10:57.590Z,88.61
2019-02-11T04:11:57.572Z,89.86
2019-02-11T04:12:57.573Z,89.81
2019-02-11T04:13:57.550Z,88.78
2019-02-11T04:14:57.536Z,89.34
2019-02-11T04:15:57.522Z,89.50
2019-02-11T04:16:57.530Z,89.61
2019-02-11T04:17:57.506Z,89.77
2019-02-11T04:18:57.489Z,88.53
2019-02-11T04:19:57.478Z,88.94
2019-02-11T04:20:57.466Z,88.11
2019-02-11T04:21:57.517Z,88.11
2019-02-11T04:22:57.448Z,88.32
2019-02-11T04:23:57.435Z,88.42
2019-02-11T04:24:57.425Z,88.32
2019-02-11T04:25:57.414Z,88.42
2019-02-11T04:26:57.418Z,87.90
2019-02-11T04:27:57.395Z,88.21
2019-02-11T04:28:57.385Z,88.21
2019-02-11T04:29:57.374Z,88.18
2019-02-11T04:30:57.361Z,88.63
2019-02-11T04:31:57.366Z,88.01
2019-02-11T04:32:57.343Z,87.90
2019-02-11T04:33:58.289Z,88.11
2019-02-11T04:34:57.318Z,87.28
2019-02-11T04:35:57.304Z,88.07
2019-02-11T04:36:57.310Z,88.39
2019-02-11T04:37:57.287Z,88.59
2019-02-11T04:38:57.282Z,88.07
2019-02-11T04:39:57.271Z,88.13
2019-02-11T04:40:57.257Z,88.07
2019-02-11T04:41:57.261Z,88.03
2019-02-11T04:42:57.234Z,88.13
2019-02-11T04:43:57.221Z,87.93
2019-02-11T04:44:57.209Z,88.69
2019-02-11T04:45:57.204Z,87.87
2019-02-11T04:46:57.205Z,87.51
2019-02-11T04:47:57.180Z,86.99
2019-02-11T04:48:57.200Z,87.10
2019-02-11T04:49:57.158Z,86.89
2019-02-11T04:50:57.157Z,86.99
2019-02-11T04:51:58.909Z,86.89
2019-02-11T04:52:57.130Z,86.27
2019-02-11T04:53:57.118Z,86.58
2019-02-11T04:54:57.111Z,86.58
2019-02-11T04:55:57.091Z,86.68
2019-02-11T04:56:57.097Z,86.58
2019-02-11T04:57:57.100Z,86.99
2019-02-11T04:58:57.131Z,86.68
2019-02-11T04:59:57.051Z,86.58
2019-02-11T05:00:57.040Z,86.47
2019-02-11T05:01:57.052Z,86.17
2019-02-11T05:02:57.020Z,85.71
2019-02-11T05:03:57.012Z,85.75
2019-02-11T05:04:57.011Z,85.96
2019-02-11T05:05:57.024Z,85.86
2019-02-11T05:06:56.990Z,86.27
2019-02-11T05:07:56.969Z,85.86
2019-02-11T05:08:56.970Z,85.92
2019-02-11T05:09:56.944Z,85.71
2019-02-11T05:10:56.936Z,85.71
2019-02-11T05:11:56.935Z,85.71
2019-02-11T05:12:56.927Z,85.50
2019-02-11T05:13:56.905Z,85.75
2019-02-11T05:14:56.890Z,85.40
2019-02-11T05:15:56.886Z,85.50
2019-02-11T05:16:56.896Z,85.50
2019-02-11T05:17:56.859Z,84.78
2019-02-11T05:18:56.851Z,85.13
2019-02-11T05:19:56.838Z,85.50
2019-02-11T05:20:56.825Z,85.09
2019-02-11T05:21:56.829Z,84.78
2019-02-11T05:22:56.803Z,85.44
2019-02-11T05:23:56.795Z,85.40
2019-02-11T05:24:56.836Z,85.34
2019-02-11T05:25:56.772Z,85.75
2019-02-11T05:26:56.766Z,85.40
2019-02-11T05:27:56.774Z,85.61
2019-02-11T05:28:56.748Z,85.55
2019-02-11T05:29:56.731Z,85.13
2019-02-11T05:30:56.723Z,85.30
2019-02-11T05:31:56.712Z,85.30
2019-02-11T05:32:56.789Z,84.88
2019-02-11T05:33:56.691Z,85.30
2019-02-11T05:34:56.677Z,85.40
2019-02-11T05:35:56.666Z,85.40
2019-02-11T05:36:56.659Z,84.78
2019-02-11T05:37:56.660Z,85.40
2019-02-11T05:38:56.639Z,84.99
2019-02-11T05:39:56.625Z,85.50
2019-02-11T05:40:56.615Z,85.19
2019-02-11T05:41:56.601Z,84.95
2019-02-11T05:42:56.613Z,85.16
2019-02-11T05:43:56.581Z,84.95
2019-02-11T05:44:56.582Z,85.16
2019-02-11T05:45:56.560Z,85.16
2019-02-11T05:46:56.550Z,84.95
2019-02-11T05:47:56.553Z,85.16
2019-02-11T05:48:56.527Z,85.05
2019-02-11T05:49:56.516Z,85.05
2019-02-11T05:50:56.509Z,85.16
2019-02-11T05:51:56.493Z,85.16
2019-02-11T05:52:56.505Z,85.16
2019-02-11T05:53:56.470Z,85.05
2019-02-11T05:54:56.462Z,85.09
2019-02-11T05:55:56.451Z,85.40
2019-02-11T05:56:56.441Z,84.88
2019-02-11T05:57:56.466Z,84.84
2019-02-11T05:58:56.421Z,85.19
2019-02-11T05:59:56.420Z,85.09
2019-02-11T06:00:56.400Z,85.57
2019-02-11T06:01:56.389Z,85.50
2019-02-11T06:02:56.404Z,85.05
2019-02-11T06:03:56.371Z,85.26
2019-02-11T06:04:56.357Z,85.57
2019-02-11T06:05:56.348Z,86.13
2019-02-11T06:06:56.346Z,85.82
2019-02-11T06:07:56.336Z,85.68
2019-02-11T06:08:56.310Z,85.36
2019-02-11T06:09:56.303Z,85.09
2019-02-11T06:10:56.315Z,84.95
2019-02-11T06:11:56.282Z,84.95
2019-02-11T06:12:56.282Z,84.74
2019-02-11T06:13:56.259Z,85.36
2019-02-11T06:15:03.913Z,85.47
2019-02-11T06:15:57.238Z,84.95
2019-02-11T06:16:56.227Z,85.36
2019-02-11T06:17:56.236Z,85.36
2019-02-11T06:18:56.206Z,84.95
2019-02-11T06:19:56.194Z,85.09
2019-02-11T06:20:56.201Z,85.71
2019-02-11T06:21:56.174Z,85.71
2019-02-11T06:22:56.176Z,85.88
2019-02-11T06:23:56.158Z,85.68
2019-02-11T06:24:56.142Z,85.05
2019-02-11T06:25:56.245Z,85.26
2019-02-11T06:26:56.121Z,85.05
2019-02-11T06:27:56.132Z,84.84
2019-02-11T06:28:56.104Z,84.95
2019-02-11T06:29:56.090Z,84.84
2019-02-11T06:30:56.094Z,84.95
2019-02-11T06:31:56.064Z,84.53
2019-02-11T06:32:56.068Z,84.29
2019-02-11T06:33:56.047Z,84.53
2019-02-11T06:34:56.036Z,85.05
2019-02-11T06:35:56.033Z,85.02
2019-02-11T06:36:56.018Z,84.64
2019-02-11T06:37:56.014Z,84.53
2019-02-11T06:38:55.993Z,84.53
2019-02-11T06:39:55.988Z,83.98
2019-02-11T06:40:55.971Z,84.50
2019-02-11T06:41:55.973Z,84.29
2019-02-11T06:42:55.965Z,84.70
2019-02-11T06:43:55.948Z,84.50
2019-02-11T06:44:55.928Z,84.50
2019-02-11T06:45:55.916Z,84.01
2019-02-11T06:46:55.907Z,84.64
2019-02-11T06:47:55.910Z,84.19
2019-02-11T06:48:55.887Z,84.29
2019-02-11T06:49:55.880Z,83.87
2019-02-11T06:50:55.887Z,84.50
2019-02-11T06:51:55.864Z,84.60
2019-02-11T06:52:55.876Z,84.60
2019-02-11T06:53:55.841Z,84.50
2019-02-11T06:54:55.831Z,84.50
2019-02-11T06:55:55.814Z,83.87
2019-02-11T06:56:55.858Z,84.50
2019-02-11T06:57:55.801Z,84.60
2019-02-11T06:58:55.780Z,83.98
2019-02-11T06:59:55.770Z,84.19
2019-02-11T07:00:55.771Z,84.05
2019-02-11T07:01:55.749Z,83.94
2019-02-11T07:02:55.750Z,83.84
2019-02-11T07:03:55.727Z,83.94
2019-02-11T07:04:55.715Z,83.53
2019-02-11T07:05:55.713Z,84.15
2019-02-11T07:06:55.696Z,84.50
2019-02-11T07:07:55.694Z,85.11
2019-02-11T07:08:55.681Z,84.87
2019-02-11T07:09:55.661Z,85.28
2019-02-11T07:10:56.009Z,85.18
2019-02-11T07:11:55.642Z,84.87
2019-02-11T07:12:55.643Z,85.49
2019-02-11T07:13:55.623Z,86.01
2019-02-11T07:14:55.610Z,86.01
2019-02-11T07:15:55.598Z,85.60
2019-02-11T07:16:55.589Z,85.70
2019-02-11T07:17:55.610Z,85.80
2019-02-11T07:18:55.572Z,85.80
2019-02-11T07:19:55.587Z,85.60
2019-02-11T07:20:55.548Z,85.49
2019-02-11T07:21:55.552Z,85.60
2019-02-11T07:22:55.537Z,85.11
2019-02-11T07:23:55.517Z,85.28
2019-02-11T07:24:55.502Z,84.77
2019-02-11T07:25:55.499Z,84.97
2019-02-11T07:26:55.487Z,84.97
2019-02-11T07:27:55.508Z,83.94
2019-02-11T07:28:55.465Z,84.25
2019-02-11T07:29:55.452Z,84.15
2019-02-11T07:30:55.449Z,83.94
2019-02-11T07:31:55.432Z,83.49
2019-02-11T07:32:55.434Z,83.53
2019-02-11T07:33:55.422Z,83.18
2019-02-11T07:34:55.400Z,82.97
2019-02-11T07:35:55.393Z,82.66
2019-02-11T07:36:55.380Z,82.45
2019-02-11T07:37:55.380Z,82.15
2019-02-11T07:38:55.388Z,82.15
2019-02-11T07:39:55.350Z,82.35
2019-02-11T07:40:55.338Z,82.15
2019-02-11T07:41:55.332Z,82.42
2019-02-11T07:42:55.317Z,82.35
2019-02-11T07:43:55.318Z,83.28
2019-02-11T07:44:55.297Z,83.80
2019-02-11T07:45:55.288Z,84.11
2019-02-11T07:46:55.276Z,84.83
2019-02-11T07:47:55.262Z,84.94
2019-02-11T07:48:55.272Z,85.45
2019-02-11T07:49:55.248Z,85.70
2019-02-11T07:50:55.256Z,85.49
2019-02-11T07:51:55.220Z,85.14
2019-02-11T07:52:55.210Z,84.94
2019-02-11T07:53:55.214Z,85.14
2019-02-11T07:54:55.192Z,85.24
2019-02-11T07:55:55.176Z,85.55
2019-02-11T07:56:55.167Z,85.14
2019-02-11T07:57:55.159Z,85.14
2019-02-11T07:58:55.163Z,84.73
2019-02-11T07:59:55.138Z,85.35
2019-02-11T08:00:55.125Z,85.31
2019-02-11T08:01:55.117Z,85.35
2019-02-11T08:02:55.119Z,84.69
2019-02-11T08:03:55.105Z,85.04
2019-02-11T08:04:55.092Z,84.79
2019-02-11T08:05:55.075Z,84.79
2019-02-11T08:06:55.064Z,84.79
2019-02-11T08:07:55.064Z,83.65
2019-02-11T08:08:55.067Z,84.07
2019-02-11T08:09:55.036Z,83.86
2019-02-11T08:10:55.022Z,82.89
2019-02-11T08:11:55.011Z,82.24
2019-02-11T08:12:55.005Z,82.14
2019-02-11T08:13:55.002Z,81.41
2019-02-11T08:14:54.984Z,82.03
2019-02-11T08:15:54.968Z,81.82
2019-02-11T08:16:54.958Z,81.07
2019-02-11T08:17:54.968Z,81.10
2019-02-11T08:18:54.949Z,80.86
2019-02-11T08:19:55.736Z,80.96
2019-02-11T08:20:54.913Z,81.17
2019-02-11T08:21:54.900Z,81.10
2019-02-11T08:22:54.889Z,81.27
2019-02-11T08:23:54.896Z,80.96
2019-02-11T08:24:54.874Z,80.96
2019-02-11T08:25:54.859Z,80.44
2019-02-11T08:26:54.849Z,79.93
2019-02-11T08:27:54.849Z,79.93
2019-02-11T08:28:54.840Z,79.62
2019-02-11T08:29:54.815Z,80.04
2019-02-11T08:30:54.807Z,80.04
2019-02-11T08:31:54.796Z,80.44
2019-02-11T08:32:54.786Z,80.96
2019-02-11T08:33:54.786Z,81.07
2019-02-11T08:34:54.778Z,80.96
2019-02-11T08:35:54.766Z,81.07
2019-02-11T08:36:54.742Z,81.07
2019-02-11T08:37:54.733Z,80.65
2019-02-11T08:38:54.759Z,79.93
2019-02-11T08:39:54.705Z,80.55
2019-02-11T08:40:54.697Z,81.07
2019-02-11T08:41:54.692Z,80.65
2019-02-11T08:42:54.672Z,80.96
2019-02-11T08:43:54.677Z,80.96
2019-02-11T08:44:54.676Z,81.10
2019-02-11T08:45:54.652Z,81.21
2019-02-11T08:46:54.630Z,81.31
2019-02-11T08:47:54.620Z,81.31
2019-02-11T08:48:54.614Z,81.00
2019-02-11T08:49:54.607Z,81.07
2019-02-11T08:50:54.600Z,81.10
2019-02-11T08:51:54.576Z,81.00
2019-02-11T08:52:54.565Z,81.31
2019-02-11T08:53:54.556Z,81.31
2019-02-11T08:54:54.568Z,81.31
2019-02-11T08:55:54.538Z,80.90
2019-02-11T08:56:54.527Z,81.00
2019-02-11T08:57:54.510Z,81.21
2019-02-11T08:58:54.509Z,81.00
2019-02-11T08:59:54.503Z,81.10
2019-02-11T09:00:54.489Z,81.35
2019-02-11T09:01:54.469Z,81.10
2019-02-11T09:02:54.461Z,80.90
2019-02-11T09:03:54.455Z,81.14
2019-02-11T09:04:54.470Z,80.48
2019-02-11T09:05:54.423Z,80.00
2019-02-11T09:06:54.423Z,79.97
2019-02-11T09:07:54.404Z,79.49
2019-02-11T09:08:54.413Z,79.38
2019-02-11T09:09:54.397Z,78.21
2019-02-11T09:10:54.395Z,78.25
2019-02-11T09:11:54.360Z,78.73
2019-02-11T09:12:54.350Z,78.01
2019-02-11T09:13:54.336Z,77.70
2019-02-11T09:14:54.341Z,76.87
2019-02-11T09:15:55.440Z,76.77
2019-02-11T09:16:54.306Z,76.04
2019-02-11T09:17:54.295Z,75.53
2019-02-11T09:18:54.286Z,74.50
2019-02-11T09:19:54.292Z,73.98
2019-02-11T09:20:54.266Z,72.50
2019-02-11T09:21:54.251Z,72.81
2019-02-11T09:22:54.239Z,71.92
2019-02-11T09:23:54.236Z,71.09
2019-02-11T09:24:54.250Z,70.99
2019-02-11T09:25:54.210Z,70.47
2019-02-11T09:26:54.196Z,69.03
2019-02-11T09:27:54.192Z,69.13
2019-02-11T09:28:54.179Z,69.65
2019-02-11T09:29:54.176Z,69.13
2019-02-11T09:30:54.181Z,69.13
2019-02-11T09:31:54.141Z,68.90
2019-02-11T09:32:54.135Z,68.69
2019-02-11T09:33:54.137Z,68.72
2019-02-11T09:34:54.124Z,69.13
2019-02-11T09:35:54.131Z,68.90
2019-02-11T09:36:54.094Z,68.59
2019-02-11T09:37:54.080Z,68.17
2019-02-11T09:38:54.067Z,67.97
2019-02-11T09:39:54.069Z,67.83
2019-02-11T09:40:54.047Z,67.93
2019-02-11T09:41:54.038Z,68.04
2019-02-11T09:42:54.025Z,67.83
2019-02-11T09:43:54.024Z,68.14
2019-02-11T09:44:54.093Z,67.21
2019-02-11T09:45:53.990Z,67.83
2019-02-11T09:46:53.980Z,67.73
2019-02-11T09:47:53.971Z,67.93
2019-02-11T09:48:53.982Z,67.42
2019-02-11T09:49:53.958Z,67.21
2019-02-11T09:50:53.963Z,67.93
2019-02-11T09:51:53.927Z,67.21
2019-02-11T09:52:53.921Z,67.63
2019-02-11T09:53:53.903Z,67.52
2019-02-11T09:54:53.909Z,66.08
2019-02-11T09:55:53.884Z,66.39
2019-02-11T09:56:53.873Z,66.80
2019-02-11T09:57:53.862Z,66.77
2019-02-11T09:58:53.862Z,67.60
2019-02-11T09:59:53.852Z,67.39
2019-02-11T10:00:53.832Z,68.42
2019-02-11T10:01:53.831Z,68.32
2019-02-11T10:02:53.809Z,68.83
2019-02-11T10:03:53.797Z,69.14
2019-02-11T10:04:53.800Z,68.86
2019-02-11T10:05:53.786Z,69.86
2019-02-11T10:06:53.766Z,69.24
2019-02-11T10:07:53.757Z,69.04
2019-02-11T10:08:53.751Z,69.04
2019-02-11T10:09:53.743Z,69.14
2019-02-11T10:10:53.723Z,69.38
2019-02-11T10:11:53.715Z,69.07
2019-02-11T10:12:53.729Z,69.69
2019-02-11T10:13:53.694Z,70.44
2019-02-11T10:14:53.704Z,70.58
2019-02-11T10:15:53.671Z,70.92
2019-02-11T10:16:53.660Z,70.72
2019-02-11T10:17:53.759Z,70.92
2019-02-11T10:18:53.641Z,70.41
2019-02-11T10:19:53.636Z,70.10
2019-02-11T10:20:53.655Z,69.17
2019-02-11T10:21:53.619Z,69.14
2019-02-11T10:22:53.601Z,68.01
2019-02-11T10:23:53.585Z,67.83
2019-02-11T10:24:53.598Z,67.18
2019-02-11T10:25:53.563Z,67.11
2019-02-11T10:26:53.555Z,67.39
2019-02-11T10:27:53.541Z,66.77
2019-02-11T10:28:53.532Z,67.18
2019-02-11T10:29:53.534Z,67.90
2019-02-11T10:30:53.509Z,67.80
2019-02-11T10:31:53.499Z,66.97
2019-02-11T10:32:53.490Z,66.56
2019-02-11T10:33:53.602Z,67.08
2019-02-11T10:34:53.483Z,67.18
2019-02-11T10:35:53.459Z,66.91
2019-02-11T10:36:53.447Z,67.83
2019-02-11T10:37:53.445Z,67.18
2019-02-11T10:38:53.428Z,67.08
2019-02-11T10:39:53.432Z,67.49
2019-02-11T10:40:53.403Z,66.05
2019-02-11T10:41:53.412Z,65.71
2019-02-11T10:42:53.387Z,65.61
2019-02-11T10:43:53.383Z,65.61
2019-02-11T10:44:53.388Z,65.19
2019-02-11T10:45:53.359Z,64.89
2019-02-11T10:46:53.341Z,63.65
2019-02-11T10:47:53.330Z,61.80
2019-02-11T10:48:53.335Z,61.77
2019-02-11T10:49:53.322Z,61.56
2019-02-11T10:50:53.915Z,61.66
2019-02-11T10:51:53.290Z,61.66
2019-02-11T10:52:53.277Z,62.35
2019-02-11T10:53:53.265Z,61.53
2019-02-11T10:54:53.264Z,61.43
2019-02-11T10:55:53.244Z,61.53
2019-02-11T10:56:53.234Z,60.91
2019-02-11T10:57:53.232Z,60.71
2019-02-11T10:58:53.225Z,60.91
2019-02-11T10:59:53.231Z,62.35
2019-02-11T11:00:53.191Z,62.05
2019-02-11T11:01:53.184Z,61.53
2019-02-11T11:02:53.169Z,62.35
2019-02-11T11:03:53.813Z,62.84
2019-02-11T11:04:53.936Z,63.07
2019-02-11T11:05:53.211Z,63.35
2019-02-11T11:06:53.128Z,63.25
2019-02-11T11:07:53.115Z,63.25
2019-02-11T11:08:53.105Z,62.84
2019-02-11T11:09:53.318Z,61.30
2019-02-11T11:10:53.094Z,61.61
2019-02-11T11:11:53.079Z,61.51
2019-02-11T11:12:53.062Z,61.61
2019-02-11T11:13:53.052Z,61.30
2019-02-11T11:14:53.040Z,61.71
2019-02-11T11:15:53.044Z,61.40
2019-02-11T11:16:53.024Z,61.19
2019-02-11T11:17:53.008Z,61.43
2019-02-11T11:18:52.996Z,61.22
2019-02-11T11:19:52.986Z,61.63
2019-02-11T11:20:52.989Z,61.53
2019-02-11T11:21:52.964Z,61.84
2019-02-11T11:22:52.956Z,61.22
2019-02-11T11:23:52.946Z,60.61
2019-02-11T11:24:52.934Z,61.43
2019-02-11T11:25:52.936Z,60.91
2019-02-11T11:26:52.912Z,61.43
2019-02-11T11:27:52.977Z,61.02
2019-02-11T11:28:52.942Z,61.43
2019-02-11T11:29:52.923Z,61.43
2019-02-11T11:30:53.895Z,61.22
2019-02-11T11:31:52.865Z,61.33
2019-02-11T11:32:52.855Z,61.43
2019-02-11T11:33:52.868Z,61.43
2019-02-11T11:34:53.361Z,61.33
2019-02-11T11:35:52.971Z,60.89
2019-02-11T11:36:52.816Z,60.78
2019-02-11T11:37:52.814Z,59.75
2019-02-11T11:38:52.795Z,60.27
2019-02-11T11:39:52.779Z,60.06
2019-02-11T11:40:52.856Z,59.86
2019-02-11T11:41:52.755Z,59.31
2019-02-11T11:42:52.781Z,60.06
2019-02-11T11:43:52.735Z,60.19
2019-02-11T11:44:52.741Z,59.68
2019-02-11T11:45:52.784Z,59.75
2019-02-11T11:46:52.702Z,60.19
2019-02-11T11:47:53.401Z,59.99
2019-02-11T11:48:52.726Z,59.99
2019-02-11T11:49:52.707Z,59.89
2019-02-11T11:50:52.699Z,59.99
2019-02-11T11:51:52.690Z,59.89
2019-02-11T11:52:52.761Z,59.99
2019-02-11T11:53:52.639Z,60.91
2019-02-11T11:54:52.616Z,60.50
2019-02-11T11:55:52.661Z,60.71
2019-02-11T11:56:52.605Z,60.50
2019-02-11T11:57:52.610Z,60.61
2019-02-11T11:58:52.579Z,60.71
2019-02-11T11:59:52.570Z,60.19
2019-02-11T12:00:52.567Z,60.81
2019-02-11T12:01:52.587Z,61.02
2019-02-11T12:03:01.396Z,60.81
2019-02-11T12:03:53.526Z,60.61
2019-02-11T12:04:52.508Z,61.12
2019-02-11T12:05:52.512Z,59.99
2019-02-11T12:06:52.483Z,60.91
2019-02-11T12:07:52.501Z,60.71
2019-02-11T12:08:52.480Z,60.89
2019-02-11T12:09:52.460Z,61.40
2019-02-11T12:10:52.486Z,61.43
2019-02-11T12:11:52.442Z,61.84
2019-02-11T12:12:52.422Z,62.05
2019-02-11T12:13:52.415Z,61.81
2019-02-11T12:14:52.422Z,61.84
2019-02-11T12:15:52.409Z,61.84
2019-02-11T12:16:56.720Z,61.94
2019-02-11T12:17:53.368Z,62.25
2019-02-11T12:18:52.354Z,62.05
2019-02-11T12:19:52.342Z,62.15
2019-02-11T12:20:52.345Z,62.77
2019-02-11T12:21:52.350Z,61.94
2019-02-11T12:22:52.324Z,63.07
2019-02-11T12:23:52.322Z,63.07
2019-02-11T12:24:52.303Z,63.49
2019-02-11T12:25:52.295Z,61.94
2019-02-11T12:26:52.297Z,62.77
2019-02-11T12:27:52.261Z,62.87
2019-02-11T12:28:52.256Z,62.07
2019-02-11T12:29:52.244Z,63.18
2019-02-11T12:30:53.431Z,63.31
2019-02-11T12:31:52.219Z,63.28
2019-02-11T12:32:54.908Z,63.62
2019-02-11T12:33:52.207Z,63.59
2019-02-11T12:34:52.184Z,63.42
2019-02-11T12:35:52.207Z,63.21
2019-02-11T12:36:52.168Z,63.52
2019-02-11T12:37:52.168Z,63.52
2019-02-11T12:38:52.140Z,65.06
2019-02-11T12:39:52.131Z,64.96
2019-02-11T12:40:52.132Z,64.31
2019-02-11T12:41:52.116Z,64.44
2019-02-11T12:42:53.451Z,64.83
2019-02-11T12:43:52.119Z,64.21
2019-02-11T12:44:52.082Z,65.03
2019-02-11T12:45:52.078Z,64.31
2019-02-11T12:46:52.057Z,63.59
2019-02-11T12:47:52.053Z,63.59
2019-02-11T12:48:52.033Z,63.79
2019-02-11T12:49:52.056Z,63.39
2019-02-11T12:50:52.040Z,63.39
2019-02-11T12:51:52.012Z,63.79